sensor_id;sensor_type;location;lat;lon;timestamp;P1;durP1;ratioP1;P2;durP2;ratioP2
18249;SDS011;27980;52.126;5.572;2022-09-21T00:01:03;6.60;;;4.38;;
18249;SDS011;27980;52.126;5.572;2022-09-21T00:03:31;7.00;;;4.70;;
18249;SDS011;27980;52.126;5.572;2022-09-21T00:06:02;7.72;;;4.82;;
18249;SDS011;27980;52.126;5.572;2022-09-21T00:08:29;9.13;;;5.03;;
18249;SDS011;27980;52.126;5.572;2022-09-21T00:10:57;6.50;;;4.65;;
18249;SDS011;27980;52.126;5.572;2022-09-21T00:13:24;8.30;;;4.85;;
18249;SDS011;27980;52.126;5.572;2022-09-21T00:15:54;6.68;;;4.60;;
18249;SDS011;27980;52.126;5.572;2022-09-21T00:18:22;6.93;;;4.53;;
18249;SDS011;27980;52.126;5.572;2022-09-21T00:20:50;5.28;;;4.22;;
18249;SDS011;27980;52.126;5.572;2022-09-21T00:23:18;7.40;;;4.63;;
18249;SDS011;27980;52.126;5.572;2022-09-21T00:25:45;7.75;;;4.68;;
18249;SDS011;27980;52.126;5.572;2022-09-21T00:28:13;4.85;;;3.58;;
18249;SDS011;27980;52.126;5.572;2022-09-21T00:30:40;9.20;;;5.10;;
18249;SDS011;27980;52.126;5.572;2022-09-21T00:33:08;6.88;;;5.18;;
18249;SDS011;27980;52.126;5.572;2022-09-21T00:35:35;10.90;;;4.85;;
18249;SDS011;27980;52.126;5.572;2022-09-21T00:38:03;5.68;;;4.40;;
18249;SDS011;27980;52.126;5.572;2022-09-21T00:40:30;6.30;;;4.50;;
18249;SDS011;27980;52.126;5.572;2022-09-21T00:43:11;5.95;;;4.85;;
18249;SDS011;27980;52.126;5.572;2022-09-21T00:45:39;6.88;;;5.13;;
18249;SDS011;27980;52.126;5.572;2022-09-21T00:48:06;5.38;;;4.85;;
18249;SDS011;27980;52.126;5.572;2022-09-21T00:50:35;7.15;;;4.78;;
18249;SDS011;27980;52.126;5.572;2022-09-21T00:53:07;6.40;;;4.90;;
18249;SDS011;27980;52.126;5.572;2022-09-21T00:55:36;8.02;;;5.43;;
18249;SDS011;27980;52.126;5.572;2022-09-21T00:58:08;7.63;;;5.40;;
18249;SDS011;27980;52.126;5.572;2022-09-21T01:00:39;6.95;;;4.90;;
18249;SDS011;27980;52.126;5.572;2022-09-21T01:03:08;10.02;;;5.80;;
18249;SDS011;27980;52.126;5.572;2022-09-21T01:05:37;7.00;;;5.00;;
18249;SDS011;27980;52.126;5.572;2022-09-21T01:08:04;5.57;;;5.05;;
18249;SDS011;27980;52.126;5.572;2022-09-21T01:10:40;6.25;;;5.00;;
18249;SDS011;27980;52.126;5.572;2022-09-21T01:13:21;7.03;;;5.05;;
18249;SDS011;27980;52.126;5.572;2022-09-21T01:15:56;6.70;;;5.20;;
18249;SDS011;27980;52.126;5.572;2022-09-21T01:18:31;6.57;;;4.53;;
18249;SDS011;27980;52.126;5.572;2022-09-21T01:24:11;5.90;;;5.03;;
18249;SDS011;27980;52.126;5.572;2022-09-21T01:27:04;5.53;;;4.70;;
18249;SDS011;27980;52.126;5.572;2022-09-21T01:29:48;6.65;;;5.30;;
18249;SDS011;27980;52.126;5.572;2022-09-21T01:32:18;6.95;;;5.10;;
18249;SDS011;27980;52.126;5.572;2022-09-21T01:34:50;12.57;;;5.35;;
18249;SDS011;27980;52.126;5.572;2022-09-21T01:37:23;7.50;;;5.30;;
18249;SDS011;27980;52.126;5.572;2022-09-21T01:39:52;6.05;;;4.60;;
18249;SDS011;27980;52.126;5.572;2022-09-21T01:42:22;6.57;;;4.95;;
18249;SDS011;27980;52.126;5.572;2022-09-21T01:44:54;8.57;;;5.18;;
18249;SDS011;27980;52.126;5.572;2022-09-21T01:47:24;6.07;;;4.50;;
18249;SDS011;27980;52.126;5.572;2022-09-21T01:49:53;7.22;;;5.13;;
18249;SDS011;27980;52.126;5.572;2022-09-21T01:52:24;6.35;;;4.90;;
18249;SDS011;27980;52.126;5.572;2022-09-21T01:54:56;5.57;;;4.88;;
18249;SDS011;27980;52.126;5.572;2022-09-21T01:57:28;6.13;;;4.63;;
18249;SDS011;27980;52.126;5.572;2022-09-21T02:00:02;5.15;;;4.65;;
18249;SDS011;27980;52.126;5.572;2022-09-21T02:02:33;5.63;;;4.53;;
18249;SDS011;27980;52.126;5.572;2022-09-21T02:05:05;7.43;;;5.07;;
18249;SDS011;27980;52.126;5.572;2022-09-21T02:07:33;5.15;;;4.65;;
18249;SDS011;27980;52.126;5.572;2022-09-21T02:10:01;6.53;;;4.97;;
18249;SDS011;27980;52.126;5.572;2022-09-21T02:12:29;6.88;;;5.20;;
18249;SDS011;27980;52.126;5.572;2022-09-21T02:14:57;5.85;;;4.97;;
18249;SDS011;27980;52.126;5.572;2022-09-21T02:17:29;5.85;;;4.15;;
18249;SDS011;27980;52.126;5.572;2022-09-21T02:20:06;5.43;;;4.70;;
18249;SDS011;27980;52.126;5.572;2022-09-21T02:22:46;5.15;;;4.75;;
18249;SDS011;27980;52.126;5.572;2022-09-21T02:25:20;5.03;;;4.50;;
18249;SDS011;27980;52.126;5.572;2022-09-21T02:27:55;7.43;;;4.80;;
18249;SDS011;27980;52.126;5.572;2022-09-21T02:30:28;4.88;;;4.47;;
18249;SDS011;27980;52.126;5.572;2022-09-21T02:33:01;4.95;;;4.50;;
18249;SDS011;27980;52.126;5.572;2022-09-21T02:35:37;5.20;;;4.70;;
18249;SDS011;27980;52.126;5.572;2022-09-21T02:38:10;6.68;;;4.85;;
18249;SDS011;27980;52.126;5.572;2022-09-21T02:40:44;5.78;;;5.00;;
18249;SDS011;27980;52.126;5.572;2022-09-21T02:43:18;5.47;;;4.65;;
18249;SDS011;27980;52.126;5.572;2022-09-21T02:45:50;6.45;;;5.00;;
18249;SDS011;27980;52.126;5.572;2022-09-21T02:48:24;7.40;;;5.00;;
18249;SDS011;27980;52.126;5.572;2022-09-21T02:50:57;5.22;;;4.65;;
18249;SDS011;27980;52.126;5.572;2022-09-21T02:53:29;5.30;;;4.63;;
18249;SDS011;27980;52.126;5.572;2022-09-21T02:56:00;5.22;;;4.57;;
18249;SDS011;27980;52.126;5.572;2022-09-21T02:58:31;7.25;;;4.55;;
18249;SDS011;27980;52.126;5.572;2022-09-21T03:01:02;7.85;;;4.65;;
18249;SDS011;27980;52.126;5.572;2022-09-21T03:03:34;6.57;;;4.82;;
18249;SDS011;27980;52.126;5.572;2022-09-21T03:06:01;5.22;;;4.60;;
18249;SDS011;27980;52.126;5.572;2022-09-21T03:08:28;5.63;;;4.50;;
18249;SDS011;27980;52.126;5.572;2022-09-21T03:10:55;6.32;;;4.10;;
18249;SDS011;27980;52.126;5.572;2022-09-21T03:13:22;4.97;;;4.00;;
18249;SDS011;27980;52.126;5.572;2022-09-21T03:15:57;4.32;;;3.92;;
18249;SDS011;27980;52.126;5.572;2022-09-21T03:18:25;4.35;;;3.95;;
18249;SDS011;27980;52.126;5.572;2022-09-21T03:20:53;6.47;;;4.22;;
18249;SDS011;27980;52.126;5.572;2022-09-21T03:23:20;7.15;;;4.97;;
18249;SDS011;27980;52.126;5.572;2022-09-21T03:25:47;6.70;;;4.28;;
18249;SDS011;27980;52.126;5.572;2022-09-21T03:28:16;8.13;;;4.38;;
18249;SDS011;27980;52.126;5.572;2022-09-21T03:30:43;7.07;;;4.25;;
18249;SDS011;27980;52.126;5.572;2022-09-21T03:33:10;5.50;;;4.47;;
18249;SDS011;27980;52.126;5.572;2022-09-21T03:35:37;4.55;;;4.15;;
18249;SDS011;27980;52.126;5.572;2022-09-21T03:38:06;5.22;;;4.13;;
18249;SDS011;27980;52.126;5.572;2022-09-21T03:40:33;8.88;;;4.45;;
18249;SDS011;27980;52.126;5.572;2022-09-21T03:43:00;5.78;;;4.18;;
18249;SDS011;27980;52.126;5.572;2022-09-21T03:45:27;5.80;;;4.60;;
18249;SDS011;27980;52.126;5.572;2022-09-21T03:47:55;4.75;;;4.28;;
18249;SDS011;27980;52.126;5.572;2022-09-21T03:50:22;4.57;;;4.10;;
18249;SDS011;27980;52.126;5.572;2022-09-21T03:52:49;5.53;;;4.57;;
18249;SDS011;27980;52.126;5.572;2022-09-21T03:55:18;6.07;;;4.30;;
18249;SDS011;27980;52.126;5.572;2022-09-21T03:57:45;5.45;;;4.30;;
18249;SDS011;27980;52.126;5.572;2022-09-21T04:00:12;4.63;;;3.90;;
18249;SDS011;27980;52.126;5.572;2022-09-21T04:02:40;5.10;;;4.43;;
18249;SDS011;27980;52.126;5.572;2022-09-21T04:05:07;4.90;;;4.40;;
18249;SDS011;27980;52.126;5.572;2022-09-21T04:07:36;5.43;;;4.28;;
18249;SDS011;27980;52.126;5.572;2022-09-21T04:10:04;5.43;;;4.68;;
18249;SDS011;27980;52.126;5.572;2022-09-21T04:12:33;6.35;;;5.35;;
18249;SDS011;27980;52.126;5.572;2022-09-21T04:15:01;6.22;;;5.45;;
18249;SDS011;27980;52.126;5.572;2022-09-21T04:17:29;6.28;;;5.68;;
18249;SDS011;27980;52.126;5.572;2022-09-21T04:19:56;7.47;;;6.03;;
18249;SDS011;27980;52.126;5.572;2022-09-21T04:22:24;6.57;;;5.53;;
18249;SDS011;27980;52.126;5.572;2022-09-21T04:24:52;7.38;;;5.30;;
18249;SDS011;27980;52.126;5.572;2022-09-21T04:27:19;5.60;;;5.10;;
18249;SDS011;27980;52.126;5.572;2022-09-21T04:29:47;6.13;;;4.22;;
18249;SDS011;27980;52.126;5.572;2022-09-21T04:32:15;4.57;;;4.18;;
18249;SDS011;27980;52.126;5.572;2022-09-21T04:34:42;6.13;;;5.13;;
18249;SDS011;27980;52.126;5.572;2022-09-21T04:37:08;5.97;;;5.20;;
18249;SDS011;27980;52.126;5.572;2022-09-21T04:39:36;5.55;;;4.72;;
18249;SDS011;27980;52.126;5.572;2022-09-21T04:42:02;4.50;;;4.10;;
18249;SDS011;27980;52.126;5.572;2022-09-21T04:44:29;4.38;;;3.97;;
18249;SDS011;27980;52.126;5.572;2022-09-21T04:46:58;4.88;;;4.38;;
18249;SDS011;27980;52.126;5.572;2022-09-21T04:49:25;4.20;;;3.83;;
18249;SDS011;27980;52.126;5.572;2022-09-21T04:51:52;4.68;;;4.20;;
18249;SDS011;27980;52.126;5.572;2022-09-21T04:54:19;5.00;;;4.50;;
18249;SDS011;27980;52.126;5.572;2022-09-21T04:56:46;4.82;;;4.32;;
18249;SDS011;27980;52.126;5.572;2022-09-21T04:59:12;6.32;;;4.75;;
18249;SDS011;27980;52.126;5.572;2022-09-21T05:01:39;4.80;;;4.40;;
18249;SDS011;27980;52.126;5.572;2022-09-21T05:04:07;6.13;;;4.50;;
18249;SDS011;27980;52.126;5.572;2022-09-21T05:06:34;5.82;;;3.92;;
18249;SDS011;27980;52.126;5.572;2022-09-21T05:09:03;7.05;;;4.07;;
18249;SDS011;27980;52.126;5.572;2022-09-21T05:11:48;5.05;;;3.67;;
18249;SDS011;27980;52.126;5.572;2022-09-21T05:14:16;4.60;;;3.60;;
18249;SDS011;27980;52.126;5.572;2022-09-21T05:16:42;4.07;;;3.50;;
18249;SDS011;27980;52.126;5.572;2022-09-21T05:19:13;5.30;;;4.15;;
18249;SDS011;27980;52.126;5.572;2022-09-21T05:21:40;4.32;;;3.70;;
18249;SDS011;27980;52.126;5.572;2022-09-21T05:24:07;5.32;;;3.55;;
18249;SDS011;27980;52.126;5.572;2022-09-21T05:26:34;4.63;;;3.67;;
18249;SDS011;27980;52.126;5.572;2022-09-21T05:29:02;6.60;;;3.55;;
18249;SDS011;27980;52.126;5.572;2022-09-21T05:31:33;5.28;;;3.40;;
18249;SDS011;27980;52.126;5.572;2022-09-21T05:34:05;6.13;;;3.88;;
18249;SDS011;27980;52.126;5.572;2022-09-21T05:36:46;4.45;;;3.85;;
18249;SDS011;27980;52.126;5.572;2022-09-21T05:39:18;4.80;;;3.75;;
18249;SDS011;27980;52.126;5.572;2022-09-21T05:41:46;4.93;;;3.92;;
18249;SDS011;27980;52.126;5.572;2022-09-21T05:44:13;4.68;;;3.58;;
18249;SDS011;27980;52.126;5.572;2022-09-21T05:46:40;4.78;;;3.78;;
18249;SDS011;27980;52.126;5.572;2022-09-21T05:49:14;7.90;;;4.10;;
18249;SDS011;27980;52.126;5.572;2022-09-21T05:51:48;5.55;;;4.15;;
18249;SDS011;27980;52.126;5.572;2022-09-21T05:54:25;7.40;;;4.50;;
18249;SDS011;27980;52.126;5.572;2022-09-21T05:57:04;6.88;;;5.28;;
18249;SDS011;27980;52.126;5.572;2022-09-21T05:59:41;8.85;;;4.80;;
18249;SDS011;27980;52.126;5.572;2022-09-21T06:02:18;6.70;;;4.60;;
18249;SDS011;27980;52.126;5.572;2022-09-21T06:04:51;4.72;;;4.15;;
18249;SDS011;27980;52.126;5.572;2022-09-21T06:07:22;5.95;;;4.22;;
18249;SDS011;27980;52.126;5.572;2022-09-21T06:09:50;6.63;;;4.10;;
18249;SDS011;27980;52.126;5.572;2022-09-21T06:12:18;7.85;;;3.50;;
18249;SDS011;27980;52.126;5.572;2022-09-21T06:14:51;6.18;;;3.83;;
18249;SDS011;27980;52.126;5.572;2022-09-21T06:17:18;5.50;;;4.05;;
18249;SDS011;27980;52.126;5.572;2022-09-21T06:19:44;10.05;;;4.60;;
18249;SDS011;27980;52.126;5.572;2022-09-21T06:22:12;7.13;;;4.32;;
18249;SDS011;27980;52.126;5.572;2022-09-21T06:24:40;7.72;;;5.40;;
18249;SDS011;27980;52.126;5.572;2022-09-21T06:27:07;7.13;;;5.68;;
18249;SDS011;27980;52.126;5.572;2022-09-21T06:29:33;8.13;;;5.88;;
18249;SDS011;27980;52.126;5.572;2022-09-21T06:32:00;9.48;;;6.47;;
18249;SDS011;27980;52.126;5.572;2022-09-21T06:34:27;7.45;;;5.53;;
18249;SDS011;27980;52.126;5.572;2022-09-21T06:36:55;9.15;;;5.38;;
18249;SDS011;27980;52.126;5.572;2022-09-21T06:39:21;6.82;;;5.22;;
18249;SDS011;27980;52.126;5.572;2022-09-21T06:41:51;7.75;;;5.03;;
18249;SDS011;27980;52.126;5.572;2022-09-21T06:44:19;6.72;;;4.70;;
18249;SDS011;27980;52.126;5.572;2022-09-21T06:46:45;8.32;;;4.68;;
18249;SDS011;27980;52.126;5.572;2022-09-21T06:49:12;12.15;;;5.15;;
18249;SDS011;27980;52.126;5.572;2022-09-21T06:51:39;6.63;;;4.47;;
18249;SDS011;27980;52.126;5.572;2022-09-21T06:54:07;7.93;;;4.95;;
18249;SDS011;27980;52.126;5.572;2022-09-21T06:56:38;6.75;;;5.25;;
18249;SDS011;27980;52.126;5.572;2022-09-21T06:59:08;8.52;;;5.43;;
18249;SDS011;27980;52.126;5.572;2022-09-21T07:01:36;10.55;;;6.43;;
18249;SDS011;27980;52.126;5.572;2022-09-21T07:04:03;14.85;;;8.65;;
18249;SDS011;27980;52.126;5.572;2022-09-21T07:06:33;10.20;;;7.90;;
18249;SDS011;27980;52.126;5.572;2022-09-21T07:09:00;9.07;;;7.57;;
18249;SDS011;27980;52.126;5.572;2022-09-21T07:11:28;12.70;;;9.98;;
18249;SDS011;27980;52.126;5.572;2022-09-21T07:13:55;7.53;;;6.20;;
18249;SDS011;27980;52.126;5.572;2022-09-21T07:16:24;8.68;;;6.32;;
18249;SDS011;27980;52.126;5.572;2022-09-21T07:18:52;8.60;;;3.95;;
18249;SDS011;27980;52.126;5.572;2022-09-21T07:21:19;4.40;;;2.42;;
18249;SDS011;27980;52.126;5.572;2022-09-21T07:23:46;3.72;;;1.92;;
18249;SDS011;27980;52.126;5.572;2022-09-21T07:26:13;3.15;;;2.17;;
18249;SDS011;27980;52.126;5.572;2022-09-21T07:28:40;2.55;;;1.48;;
18249;SDS011;27980;52.126;5.572;2022-09-21T07:31:07;3.20;;;1.75;;
18249;SDS011;27980;52.126;5.572;2022-09-21T07:33:36;2.92;;;1.80;;
18249;SDS011;27980;52.126;5.572;2022-09-21T07:36:04;3.88;;;2.25;;
18249;SDS011;27980;52.126;5.572;2022-09-21T07:38:34;3.00;;;1.90;;
18249;SDS011;27980;52.126;5.572;2022-09-21T07:41:01;6.03;;;2.30;;
18249;SDS011;27980;52.126;5.572;2022-09-21T07:43:28;4.85;;;2.03;;
18249;SDS011;27980;52.126;5.572;2022-09-21T07:45:55;6.20;;;2.00;;
18249;SDS011;27980;52.126;5.572;2022-09-21T07:48:22;2.78;;;1.60;;
18249;SDS011;27980;52.126;5.572;2022-09-21T07:50:50;3.35;;;2.00;;
18249;SDS011;27980;52.126;5.572;2022-09-21T07:53:17;3.53;;;1.60;;
18249;SDS011;27980;52.126;5.572;2022-09-21T07:55:44;3.10;;;1.73;;
18249;SDS011;27980;52.126;5.572;2022-09-21T07:58:10;10.90;;;1.92;;
18249;SDS011;27980;52.126;5.572;2022-09-21T08:00:55;3.75;;;1.42;;
18249;SDS011;27980;52.126;5.572;2022-09-21T08:03:22;4.70;;;1.60;;
18249;SDS011;27980;52.126;5.572;2022-09-21T08:05:48;6.18;;;1.77;;
18249;SDS011;27980;52.126;5.572;2022-09-21T08:08:17;3.10;;;1.48;;
18249;SDS011;27980;52.126;5.572;2022-09-21T08:10:45;4.72;;;1.30;;
18249;SDS011;27980;52.126;5.572;2022-09-21T08:13:11;2.75;;;1.27;;
18249;SDS011;27980;52.126;5.572;2022-09-21T08:15:38;2.28;;;1.10;;
18249;SDS011;27980;52.126;5.572;2022-09-21T08:18:05;5.68;;;1.73;;
18249;SDS011;27980;52.126;5.572;2022-09-21T08:20:34;1.65;;;1.05;;
18249;SDS011;27980;52.126;5.572;2022-09-21T08:23:03;3.35;;;1.30;;
18249;SDS011;27980;52.126;5.572;2022-09-21T08:25:30;6.60;;;1.40;;
18249;SDS011;27980;52.126;5.572;2022-09-21T08:27:58;3.63;;;1.25;;
18249;SDS011;27980;52.126;5.572;2022-09-21T08:30:25;2.63;;;1.38;;
18249;SDS011;27980;52.126;5.572;2022-09-21T08:32:55;3.33;;;1.35;;
18249;SDS011;27980;52.126;5.572;2022-09-21T08:35:22;2.35;;;1.20;;
18249;SDS011;27980;52.126;5.572;2022-09-21T08:37:52;2.75;;;1.23;;
18249;SDS011;27980;52.126;5.572;2022-09-21T08:40:20;2.38;;;1.27;;
18249;SDS011;27980;52.126;5.572;2022-09-21T08:42:50;3.90;;;1.08;;
18249;SDS011;27980;52.126;5.572;2022-09-21T08:45:22;1.85;;;1.17;;
18249;SDS011;27980;52.126;5.572;2022-09-21T08:47:57;4.38;;;1.60;;
18249;SDS011;27980;52.126;5.572;2022-09-21T08:50:30;2.50;;;1.25;;
18249;SDS011;27980;52.126;5.572;2022-09-21T08:53:03;3.53;;;1.20;;
18249;SDS011;27980;52.126;5.572;2022-09-21T08:55:34;2.45;;;1.20;;
18249;SDS011;27980;52.126;5.572;2022-09-21T08:58:01;2.42;;;0.90;;
18249;SDS011;27980;52.126;5.572;2022-09-21T09:00:28;3.15;;;1.27;;
18249;SDS011;27980;52.126;5.572;2022-09-21T09:03:15;2.78;;;1.13;;
18249;SDS011;27980;52.126;5.572;2022-09-21T09:05:53;2.95;;;1.33;;
18249;SDS011;27980;52.126;5.572;2022-09-21T09:08:38;5.15;;;1.05;;
18249;SDS011;27980;52.126;5.572;2022-09-21T09:11:39;3.25;;;1.20;;
18249;SDS011;27980;52.126;5.572;2022-09-21T09:14:25;3.15;;;1.15;;
18249;SDS011;27980;52.126;5.572;2022-09-21T09:17:19;3.45;;;1.20;;
18249;SDS011;27980;52.126;5.572;2022-09-21T09:19:58;3.05;;;1.27;;
18249;SDS011;27980;52.126;5.572;2022-09-21T09:22:29;5.60;;;1.48;;
18249;SDS011;27980;52.126;5.572;2022-09-21T09:25:00;3.35;;;1.05;;
18249;SDS011;27980;52.126;5.572;2022-09-21T09:27:31;3.63;;;1.10;;
18249;SDS011;27980;52.126;5.572;2022-09-21T09:30:04;2.97;;;1.02;;
18249;SDS011;27980;52.126;5.572;2022-09-21T09:32:50;2.22;;;1.27;;
18249;SDS011;27980;52.126;5.572;2022-09-21T09:35:23;2.13;;;1.25;;
18249;SDS011;27980;52.126;5.572;2022-09-21T09:37:53;6.25;;;1.40;;
18249;SDS011;27980;52.126;5.572;2022-09-21T09:40:31;2.45;;;1.00;;
18249;SDS011;27980;52.126;5.572;2022-09-21T09:43:21;2.88;;;1.30;;
18249;SDS011;27980;52.126;5.572;2022-09-21T09:46:00;2.33;;;1.05;;
18249;SDS011;27980;52.126;5.572;2022-09-21T09:48:39;3.75;;;1.38;;
18249;SDS011;27980;52.126;5.572;2022-09-21T09:51:28;1.98;;;1.00;;
18249;SDS011;27980;52.126;5.572;2022-09-21T09:53:59;1.85;;;1.20;;
18249;SDS011;27980;52.126;5.572;2022-09-21T09:56:28;2.67;;;1.30;;
18249;SDS011;27980;52.126;5.572;2022-09-21T09:58:59;2.65;;;1.10;;
18249;SDS011;27980;52.126;5.572;2022-09-21T10:01:37;4.00;;;1.30;;
18249;SDS011;27980;52.126;5.572;2022-09-21T10:04:07;2.20;;;1.00;;
18249;SDS011;27980;52.126;5.572;2022-09-21T10:06:35;2.22;;;0.90;;
18249;SDS011;27980;52.126;5.572;2022-09-21T10:09:16;2.95;;;1.23;;
18249;SDS011;27980;52.126;5.572;2022-09-21T10:11:45;2.42;;;1.02;;
18249;SDS011;27980;52.126;5.572;2022-09-21T10:14:15;2.90;;;1.23;;
18249;SDS011;27980;52.126;5.572;2022-09-21T10:16:45;3.67;;;1.20;;
18249;SDS011;27980;52.126;5.572;2022-09-21T10:19:16;4.18;;;1.13;;
18249;SDS011;27980;52.126;5.572;2022-09-21T10:21:46;3.65;;;1.05;;
18249;SDS011;27980;52.126;5.572;2022-09-21T10:24:22;2.97;;;1.25;;
18249;SDS011;27980;52.126;5.572;2022-09-21T10:26:52;2.00;;;1.05;;
18249;SDS011;27980;52.126;5.572;2022-09-21T10:29:29;3.67;;;1.20;;
18249;SDS011;27980;52.126;5.572;2022-09-21T10:31:58;2.60;;;1.00;;
18249;SDS011;27980;52.126;5.572;2022-09-21T10:34:27;3.72;;;1.60;;
18249;SDS011;27980;52.126;5.572;2022-09-21T10:36:56;3.33;;;0.90;;
18249;SDS011;27980;52.126;5.572;2022-09-21T10:39:25;3.65;;;1.40;;
18249;SDS011;27980;52.126;5.572;2022-09-21T10:41:55;3.97;;;1.40;;
18249;SDS011;27980;52.126;5.572;2022-09-21T10:44:32;2.95;;;1.20;;
18249;SDS011;27980;52.126;5.572;2022-09-21T10:47:03;2.25;;;1.00;;
18249;SDS011;27980;52.126;5.572;2022-09-21T10:49:42;2.60;;;1.10;;
18249;SDS011;27980;52.126;5.572;2022-09-21T10:52:11;3.67;;;1.48;;
18249;SDS011;27980;52.126;5.572;2022-09-21T10:54:38;4.68;;;1.67;;
18249;SDS011;27980;52.126;5.572;2022-09-21T10:57:07;2.55;;;1.25;;
18249;SDS011;27980;52.126;5.572;2022-09-21T10:59:41;3.92;;;1.40;;
18249;SDS011;27980;52.126;5.572;2022-09-21T11:02:22;6.13;;;1.55;;
18249;SDS011;27980;52.126;5.572;2022-09-21T11:04:59;2.67;;;1.50;;
18249;SDS011;27980;52.126;5.572;2022-09-21T11:07:34;7.15;;;1.58;;
18249;SDS011;27980;52.126;5.572;2022-09-21T11:10:09;3.17;;;1.58;;
18249;SDS011;27980;52.126;5.572;2022-09-21T11:12:47;3.83;;;1.48;;
18249;SDS011;27980;52.126;5.572;2022-09-21T11:15:29;3.90;;;1.30;;
18249;SDS011;27980;52.126;5.572;2022-09-21T11:18:05;2.85;;;1.30;;
18249;SDS011;27980;52.126;5.572;2022-09-21T11:20:44;2.85;;;1.50;;
18249;SDS011;27980;52.126;5.572;2022-09-21T11:23:17;2.05;;;1.00;;
18249;SDS011;27980;52.126;5.572;2022-09-21T11:25:54;3.90;;;1.48;;
18249;SDS011;27980;52.126;5.572;2022-09-21T11:28:29;2.05;;;1.08;;
18249;SDS011;27980;52.126;5.572;2022-09-21T11:31:19;3.75;;;1.20;;
18249;SDS011;27980;52.126;5.572;2022-09-21T11:34:23;1.55;;;0.70;;
18249;SDS011;27980;52.126;5.572;2022-09-21T11:37:05;3.00;;;1.10;;
18249;SDS011;27980;52.126;5.572;2022-09-21T11:39:42;1.80;;;0.90;;
18249;SDS011;27980;52.126;5.572;2022-09-21T11:42:24;3.30;;;1.20;;
18249;SDS011;27980;52.126;5.572;2022-09-21T11:45:02;3.38;;;1.02;;
18249;SDS011;27980;52.126;5.572;2022-09-21T11:47:48;2.13;;;0.85;;
18249;SDS011;27980;52.126;5.572;2022-09-21T11:50:29;3.45;;;1.05;;
18249;SDS011;27980;52.126;5.572;2022-09-21T11:53:08;1.67;;;0.80;;
18249;SDS011;27980;52.126;5.572;2022-09-21T11:59:12;1.70;;;0.70;;
18249;SDS011;27980;52.126;5.572;2022-09-21T12:01:58;2.50;;;0.85;;
18249;SDS011;27980;52.126;5.572;2022-09-21T12:04:48;2.80;;;1.00;;
18249;SDS011;27980;52.126;5.572;2022-09-21T12:07:24;1.42;;;0.88;;
18249;SDS011;27980;52.126;5.572;2022-09-21T12:10:08;1.90;;;0.90;;
18249;SDS011;27980;52.126;5.572;2022-09-21T12:13:15;2.05;;;0.93;;
18249;SDS011;27980;52.126;5.572;2022-09-21T12:15:49;1.42;;;0.82;;
18249;SDS011;27980;52.126;5.572;2022-09-21T12:18:27;3.17;;;0.90;;
18249;SDS011;27980;52.126;5.572;2022-09-21T12:21:02;2.78;;;1.10;;
18249;SDS011;27980;52.126;5.572;2022-09-21T12:23:37;2.78;;;1.00;;
18249;SDS011;27980;52.126;5.572;2022-09-21T12:26:08;2.85;;;0.73;;
18249;SDS011;27980;52.126;5.572;2022-09-21T12:28:38;3.75;;;1.02;;
18249;SDS011;27980;52.126;5.572;2022-09-21T12:31:08;4.32;;;1.15;;
18249;SDS011;27980;52.126;5.572;2022-09-21T12:33:42;3.20;;;0.90;;
18249;SDS011;27980;52.126;5.572;2022-09-21T12:36:15;2.03;;;0.93;;
18249;SDS011;27980;52.126;5.572;2022-09-21T12:38:47;2.63;;;0.98;;
18249;SDS011;27980;52.126;5.572;2022-09-21T12:41:20;1.70;;;0.88;;
18249;SDS011;27980;52.126;5.572;2022-09-21T12:43:54;2.25;;;0.90;;
18249;SDS011;27980;52.126;5.572;2022-09-21T12:46:27;1.13;;;0.68;;
18249;SDS011;27980;52.126;5.572;2022-09-21T12:48:57;2.55;;;1.00;;
18249;SDS011;27980;52.126;5.572;2022-09-21T12:51:29;2.17;;;1.13;;
18249;SDS011;27980;52.126;5.572;2022-09-21T12:54:00;2.58;;;1.40;;
18249;SDS011;27980;52.126;5.572;2022-09-21T12:56:36;3.20;;;1.40;;
18249;SDS011;27980;52.126;5.572;2022-09-21T12:59:12;1.83;;;0.80;;
18249;SDS011;27980;52.126;5.572;2022-09-21T13:01:56;2.00;;;0.80;;
18249;SDS011;27980;52.126;5.572;2022-09-21T13:04:38;3.38;;;1.35;;
18249;SDS011;27980;52.126;5.572;2022-09-21T13:07:31;4.18;;;1.20;;
18249;SDS011;27980;52.126;5.572;2022-09-21T13:10:44;3.92;;;0.90;;
18249;SDS011;27980;52.126;5.572;2022-09-21T13:13:21;3.45;;;1.33;;
18249;SDS011;27980;52.126;5.572;2022-09-21T13:15:53;3.03;;;1.10;;
18249;SDS011;27980;52.126;5.572;2022-09-21T13:18:22;2.55;;;0.95;;
18249;SDS011;27980;52.126;5.572;2022-09-21T13:20:52;2.35;;;0.80;;
18249;SDS011;27980;52.126;5.572;2022-09-21T13:23:28;3.47;;;0.65;;
18249;SDS011;27980;52.126;5.572;2022-09-21T13:26:06;4.68;;;1.23;;
18249;SDS011;27980;52.126;5.572;2022-09-21T13:28:41;2.42;;;0.82;;
18249;SDS011;27980;52.126;5.572;2022-09-21T13:31:40;1.20;;;0.77;;
18249;SDS011;27980;52.126;5.572;2022-09-21T13:34:29;2.83;;;0.80;;
18249;SDS011;27980;52.126;5.572;2022-09-21T13:43:17;3.97;;;1.08;;
18249;SDS011;27980;52.126;5.572;2022-09-21T13:45:48;2.63;;;0.90;;
18249;SDS011;27980;52.126;5.572;2022-09-21T13:48:18;4.45;;;0.82;;
18249;SDS011;27980;52.126;5.572;2022-09-21T13:51:05;4.70;;;0.98;;
18249;SDS011;27980;52.126;5.572;2022-09-21T13:53:38;5.53;;;0.95;;
18249;SDS011;27980;52.126;5.572;2022-09-21T13:56:18;1.75;;;0.77;;
18249;SDS011;27980;52.126;5.572;2022-09-21T13:58:48;3.00;;;0.95;;
18249;SDS011;27980;52.126;5.572;2022-09-21T14:01:28;2.28;;;0.70;;
18249;SDS011;27980;52.126;5.572;2022-09-21T14:04:04;1.60;;;0.70;;
18249;SDS011;27980;52.126;5.572;2022-09-21T14:06:48;4.15;;;0.85;;
18249;SDS011;27980;52.126;5.572;2022-09-21T14:10:08;2.53;;;0.90;;
18249;SDS011;27980;52.126;5.572;2022-09-21T14:15:41;2.30;;;0.60;;
18249;SDS011;27980;52.126;5.572;2022-09-21T14:18:19;2.40;;;0.88;;
18249;SDS011;27980;52.126;5.572;2022-09-21T14:21:06;1.98;;;0.77;;
18249;SDS011;27980;52.126;5.572;2022-09-21T14:23:35;3.85;;;1.00;;
18249;SDS011;27980;52.126;5.572;2022-09-21T14:26:18;3.03;;;0.90;;
18249;SDS011;27980;52.126;5.572;2022-09-21T14:28:49;1.90;;;0.70;;
18249;SDS011;27980;52.126;5.572;2022-09-21T14:31:19;1.80;;;0.80;;
18249;SDS011;27980;52.126;5.572;2022-09-21T14:33:52;2.05;;;0.80;;
18249;SDS011;27980;52.126;5.572;2022-09-21T14:36:23;2.53;;;0.73;;
18249;SDS011;27980;52.126;5.572;2022-09-21T14:38:55;2.67;;;0.93;;
18249;SDS011;27980;52.126;5.572;2022-09-21T14:41:29;2.75;;;1.08;;
18249;SDS011;27980;52.126;5.572;2022-09-21T14:44:00;7.60;;;1.35;;
18249;SDS011;27980;52.126;5.572;2022-09-21T14:46:40;4.68;;;1.23;;
18249;SDS011;27980;52.126;5.572;2022-09-21T14:49:22;2.45;;;1.05;;
18249;SDS011;27980;52.126;5.572;2022-09-21T14:52:15;2.65;;;1.45;;
18249;SDS011;27980;52.126;5.572;2022-09-21T14:54:55;2.17;;;1.10;;
18249;SDS011;27980;52.126;5.572;2022-09-21T14:57:38;2.95;;;1.30;;
18249;SDS011;27980;52.126;5.572;2022-09-21T15:00:37;2.53;;;1.10;;
18249;SDS011;27980;52.126;5.572;2022-09-21T15:06:13;3.72;;;1.08;;
18249;SDS011;27980;52.126;5.572;2022-09-21T15:09:09;3.33;;;1.10;;
18249;SDS011;27980;52.126;5.572;2022-09-21T15:12:10;3.03;;;0.80;;
18249;SDS011;27980;52.126;5.572;2022-09-21T15:14:42;1.85;;;0.90;;
18249;SDS011;27980;52.126;5.572;2022-09-21T15:17:24;4.15;;;1.20;;
18249;SDS011;27980;52.126;5.572;2022-09-21T15:19:56;3.33;;;1.20;;
18249;SDS011;27980;52.126;5.572;2022-09-21T15:22:25;3.85;;;1.00;;
18249;SDS011;27980;52.126;5.572;2022-09-21T15:24:53;4.32;;;1.23;;
18249;SDS011;27980;52.126;5.572;2022-09-21T15:27:23;3.53;;;1.10;;
18249;SDS011;27980;52.126;5.572;2022-09-21T15:29:57;3.35;;;0.90;;
18249;SDS011;27980;52.126;5.572;2022-09-21T15:32:32;2.92;;;0.77;;
18249;SDS011;27980;52.126;5.572;2022-09-21T15:35:03;2.95;;;1.00;;
18249;SDS011;27980;52.126;5.572;2022-09-21T15:37:33;4.43;;;1.10;;
18249;SDS011;27980;52.126;5.572;2022-09-21T15:40:04;1.75;;;0.80;;